Time;durP1;ratioP1;P1;durP2;ratioP2;P2;SDS_P1;SDS_P2;PMS_P1;PMS_P2;Temp;Humidity;BMP_temperature;BMP_pressure;BME280_temperature;BME280_humidity;BME280_pressure;Samples;Min_cycle;Max_cycle;Signal;HPM_P1;HPM_P2
2023/04/27 00:00:12;;;;;;;17.10;7.03;;;;;;;5.08;83.15;100816.63;5033898;57;1138679;-77
2023/04/27 00:05:18;;;;;;;14.83;6.75;;;;;;;5.07;83.57;100812.77;5062564;56;1136655;-77
2023/04/27 00:10:24;;;;;;;24.18;7.20;;;;;;;5.05;83.74;100808.91;5112849;56;1136678;-77
2023/04/27 00:15:30;;;;;;;13.80;7.03;;;;;;;5.06;83.91;100805.38;5112581;56;1136572;-77
2023/04/27 00:20:35;;;;;;;13.80;6.53;;;;;;;5.06;84.06;100809.77;5127671;56;1136587;-77
2023/04/27 00:25:41;;;;;;;12.80;5.43;;;;;;;5.09;83.84;100808.31;5038410;56;1136592;-77
2023/04/27 00:30:47;;;;;;;17.20;5.70;;;;;;;5.15;84.12;100802.77;5038034;56;1138682;-77
2023/04/27 00:35:53;;;;;;;12.65;5.05;;;;;;;5.15;84.41;100802.30;5082243;56;1136658;-77
2023/04/27 00:41:03;;;;;;;10.20;4.60;;;;;;;5.13;84.72;100799.37;5072436;56;1136770;-77
2023/04/27 00:46:10;;;;;;;14.20;5.20;;;;;;;5.08;84.75;100807.92;5058082;56;1136678;-77
2023/04/27 00:51:15;;;;;;;14.47;5.33;;;;;;;5.08;84.92;100803.98;5078005;56;1136800;-77
2023/04/27 00:56:21;;;;;;;11.18;4.92;;;;;;;5.05;85.38;100815.47;5097919;56;1136585;-77
2023/04/27 01:01:27;;;;;;;8.33;4.60;;;;;;;5.02;85.40;100814.34;5078183;56;1136545;-77
2023/04/27 01:06:33;;;;;;;8.93;4.37;;;;;;;5.04;85.75;100812.46;5051767;56;1134568;-77
2023/04/27 01:11:40;;;;;;;15.67;5.00;;;;;;;5.01;86.41;100811.33;5024634;57;1134645;-77
2023/04/27 01:16:46;;;;;;;7.87;4.53;;;;;;;5.01;86.37;100813.10;5004913;57;1136659;-77
2023/04/27 01:21:52;;;;;;;9.45;4.80;;;;;;;5.03;86.61;100829.61;5001082;57;1134581;-77
2023/04/27 01:26:57;;;;;;;12.37;4.97;;;;;;;5.03;86.77;100815.19;5014514;57;1134508;-77
2023/04/27 01:32:03;;;;;;;13.73;5.77;;;;;;;5.03;86.95;100817.34;4994905;57;1136587;-76
2023/04/27 01:37:09;;;;;;;8.57;4.30;;;;;;;5.04;87.22;100819.02;4994381;57;1136754;-77
2023/04/27 01:42:15;;;;;;;9.63;5.83;;;;;;;5.08;87.38;100821.03;5098038;56;1143672;-77
2023/04/27 01:47:21;;;;;;;11.05;5.08;;;;;;;5.10;87.48;100821.80;5078078;57;1134731;-77
2023/04/27 01:52:27;;;;;;;10.50;5.20;;;;;;;5.10;87.74;100817.88;5077826;56;1136685;-77
2023/04/27 01:57:33;;;;;;;9.63;4.63;;;;;;;5.12;87.76;100818.64;5097588;56;1136618;-77
2023/04/27 02:02:40;;;;;;;6.70;3.50;;;;;;;5.10;87.99;100823.96;5078071;56;1134592;-77
2023/04/27 02:07:46;;;;;;;10.30;4.17;;;;;;;5.14;88.71;100833.84;5034038;57;1134670;-77
2023/04/27 02:12:52;;;;;;;16.73;5.50;;;;;;;5.11;88.86;100833.98;5005622;57;1136843;-77
2023/04/27 02:17:58;;;;;;;14.80;4.73;;;;;;;5.11;88.92;100836.61;5024898;57;1136660;-77
2023/04/27 02:23:03;;;;;;;9.07;4.17;;;;;;;5.09;89.16;100837.14;4999340;57;1136629;-77
2023/04/27 02:28:10;;;;;;;10.35;4.25;;;;;;;5.11;89.07;100841.39;5012219;57;1134666;-78
2023/04/27 02:33:16;;;;;;;12.37;4.50;;;;;;;5.07;89.21;100842.45;5014759;57;1137567;-77
2023/04/27 02:38:21;;;;;;;12.56;4.64;;;;;;;5.06;89.19;100838.14;4991004;57;1136619;-77
2023/04/27 02:43:29;;;;;;;9.03;4.23;;;;;;;5.06;89.11;100838.14;5014217;57;1136740;-77
2023/04/27 02:48:35;;;;;;;10.80;4.13;;;;;;;5.08;89.17;100844.16;5132181;56;1134599;-77
2023/04/27 02:53:42;;;;;;;8.50;4.57;;;;;;;5.06;89.55;100846.47;5123299;56;1136555;-77
2023/04/27 02:58:47;;;;;;;17.87;4.13;;;;;;;5.02;89.80;100848.41;5123314;56;1134492;-77
2023/04/27 03:03:53;;;;;;;8.13;4.03;;;;;;;5.04;89.75;100860.14;5123186;56;1136671;-77
2023/04/27 03:08:59;;;;;;;16.37;4.40;;;;;;;5.02;89.63;100867.22;5134622;56;1134617;-78
2023/04/27 03:14:06;;;;;;;8.67;4.43;;;;;;;4.99;89.74;100867.37;5114510;56;1136656;-77
2023/04/27 03:19:12;;;;;;;8.30;3.67;;;;;;;4.90;89.99;100870.80;5119512;56;1134556;-76
2023/04/27 03:24:18;;;;;;;10.32;3.90;;;;;;;4.89;90.05;100872.19;5068496;56;1134598;-77
2023/04/27 03:29:23;;;;;;;12.78;5.03;;;;;;;4.85;90.77;100879.84;5089199;55;1136652;-77
2023/04/27 03:34:29;;;;;;;8.70;4.20;;;;;;;4.82;91.12;100893.08;5103328;56;1136749;-76
2023/04/27 03:39:35;;;;;;;11.37;3.60;;;;;;;4.78;91.70;100890.20;4975012;57;1134740;-76
2023/04/27 03:44:40;;;;;;;8.57;4.43;;;;;;;4.76;91.89;100888.11;5107187;55;1136646;-77
2023/04/27 03:49:46;;;;;;;12.73;4.10;;;;;;;4.76;92.06;100893.36;5179371;55;1134643;-76
2023/04/27 03:54:52;;;;;;;8.63;3.75;;;;;;;4.71;92.36;100897.98;5179022;55;1136591;-77
2023/04/27 03:59:58;;;;;;;7.57;3.63;;;;;;;4.70;92.40;100905.00;5199292;55;1134600;-76
2023/04/27 04:05:04;;;;;;;10.60;3.13;;;;;;;4.71;92.12;100903.23;5173428;55;1134641;-77
2023/04/27 04:10:10;;;;;;;15.60;5.10;;;;;;;4.76;92.30;100911.23;5092935;56;1138692;-77
2023/04/27 04:15:16;;;;;;;18.70;4.50;;;;;;;4.76;92.30;100911.23;5112983;56;1136876;-76
2023/04/27 04:20:22;;;;;;;8.55;4.60;;;;;;;4.81;92.53;100913.66;5092813;56;1136801;-77
2023/04/27 04:25:27;;;;;;;9.75;4.95;;;;;;;4.81;92.58;100918.44;5092838;56;1134521;-77
2023/04/27 04:30:33;;;;;;;9.50;4.93;;;;;;;4.82;92.60;100921.91;5198800;55;1134652;-77
2023/04/27 04:35:40;;;;;;;11.97;4.75;;;;;;;4.80;92.59;100930.30;5138363;55;1134576;-77
2023/04/27 04:40:46;;;;;;;12.23;4.20;;;;;;;4.86;92.82;100928.25;5092328;56;1136568;-77
2023/04/27 04:45:52;;;;;;;13.37;5.13;;;;;;;4.96;92.79;100932.58;5092129;56;1138755;-77
2023/04/27 04:50:57;;;;;;;8.03;3.90;;;;;;;5.08;92.87;100932.44;5111703;56;1138740;-76
2023/04/27 04:56:11;;;;;;;9.80;3.60;;;;;;;5.18;93.10;100936.34;5092446;56;1134743;-76
2023/04/27 05:01:17;;;;;;;4.63;2.83;;;;;;;5.23;93.19;100939.10;5088796;56;1134501;-77
2023/04/27 05:06:22;;;;;;;9.90;3.13;;;;;;;5.27;93.29;100934.56;5112473;56;1134541;-77
2023/04/27 05:11:28;;;;;;;7.83;4.08;;;;;;;5.30;93.58;100937.89;5092452;56;1134731;-77
2023/04/27 05:16:34;;;;;;;7.73;3.27;;;;;;;5.38;93.40;100940.12;5089017;56;1134524;-77
2023/04/27 05:21:39;;;;;;;5.67;2.37;;;;;;;5.48;93.54;100945.32;5148343;55;1134586;-76
2023/04/27 05:26:45;;;;;;;8.20;2.43;;;;;;;5.55;93.26;100944.53;5177914;55;1134516;-76
2023/04/27 05:31:51;;;;;;;9.30;3.00;;;;;;;5.63;92.97;100952.89;5178430;55;1134658;-77
2023/04/27 05:36:56;;;;;;;6.97;2.83;;;;;;;5.69;92.78;100960.89;5172806;55;1134520;-77
2023/04/27 05:42:02;;;;;;;7.30;2.37;;;;;;;5.80;93.22;100954.66;5197202;55;1134484;-77
2023/04/27 05:47:07;;;;;;;5.03;2.43;;;;;;;6.00;93.08;100955.81;5142952;55;1134460;-75
2023/04/27 05:52:14;;;;;;;3.42;2.50;;;;;;;6.24;92.68;100957.65;5195156;55;1134579;-77
2023/04/27 05:57:20;;;;;;;7.60;2.55;;;;;;;6.49;92.57;100962.44;5100171;55;1134563;-77
2023/04/27 06:02:25;;;;;;;6.63;3.00;;;;;;;6.61;89.18;100962.62;5138379;55;1134625;-76
2023/04/27 06:07:31;;;;;;;7.70;2.87;;;;;;;6.62;89.66;100968.72;5134179;55;1134628;-77
2023/04/27 06:12:37;;;;;;;12.53;5.43;;;;;;;6.64;89.81;100970.80;5163663;55;1134687;-76
2023/04/27 06:17:43;;;;;;;10.93;6.27;;;;;;;6.74;90.59;100971.14;5095702;55;1136746;-75
2023/04/27 06:22:48;;;;;;;6.27;3.20;;;;;;;6.93;91.36;100963.95;5112248;55;1136602;-75
2023/04/27 06:27:56;;;;;;;8.03;2.85;;;;;;;7.06;90.21;100973.70;5095575;56;1134487;-78
2023/04/27 06:33:01;;;;;;;4.67;2.80;;;;;;;7.03;88.97;100971.70;5127755;55;1134520;-76
2023/04/27 06:38:07;;;;;;;5.90;3.13;;;;;;;7.17;88.93;100965.23;5108246;55;1134482;-77
2023/04/27 06:43:12;;;;;;;8.63;2.97;;;;;;;7.30;88.26;100964.06;5172345;55;1134583;-77
2023/04/27 06:48:18;;;;;;;7.47;2.60;;;;;;;7.41;88.81;100962.51;5180138;55;1134736;-77
2023/04/27 06:53:23;;;;;;;9.75;3.95;;;;;;;7.57;88.36;100959.84;5095302;56;1134614;-77
2023/04/27 06:58:29;;;;;;;6.00;2.90;;;;;;;7.60;88.67;100968.03;5125135;55;1134523;-77
2023/04/27 07:03:38;;;;;;;9.53;3.13;;;;;;;7.67;84.66;100962.31;5115447;55;1134512;-77
2023/04/27 07:08:44;;;;;;;4.97;2.63;;;;;;;7.78;84.60;100965.65;5095008;56;1134614;-77
2023/04/27 07:13:49;;;;;;;3.90;2.50;;;;;;;7.94;85.60;100955.05;5159718;55;1134768;-77
2023/04/27 07:18:55;;;;;;;7.78;2.80;;;;;;;8.23;86.08;100958.09;5095679;55;1136846;-74
2023/04/27 07:24:00;;;;;;;6.83;3.40;;;;;;;8.39;82.93;100962.00;5031101;57;1134481;-77
2023/04/27 07:29:07;;;;;;;8.70;2.97;;;;;;;8.38;80.75;100966.89;5024093;56;1134786;-74
2023/04/27 07:34:13;;;;;;;7.20;2.73;;;;;;;8.24;79.40;100965.53;5076568;56;1134798;-77
2023/04/27 07:39:19;;;;;;;9.30;4.07;;;;;;;8.42;80.45;100963.95;5115429;56;1134512;-76
2023/04/27 07:44:25;;;;;;;12.10;4.77;;;;;;;8.56;73.63;100968.84;5099201;55;1134498;-76
2023/04/27 07:49:31;;;;;;;13.40;2.93;;;;;;;8.73;71.24;100965.52;5120177;55;1136645;-77
2023/04/27 07:54:37;;;;;;;6.33;1.37;;;;;;;8.78;70.20;100958.66;5140214;55;1136559;-77
2023/04/27 07:59:42;;;;;;;8.43;2.43;;;;;;;8.78;67.16;100956.86;5122361;55;1134725;-76
2023/04/27 08:04:49;;;;;;;4.03;1.57;;;;;;;8.81;69.72;100963.74;5132024;55;1134697;-76
2023/04/27 08:09:55;;;;;;;11.07;1.60;;;;;;;8.83;68.44;100960.54;5016897;57;1134691;-77
2023/04/27 08:15:01;;;;;;;5.53;2.00;;;;;;;8.84;65.08;100972.78;5036364;56;1136797;-74
2023/04/27 08:20:12;;;;;;;4.47;1.70;;;;;;;8.77;64.16;100980.22;5048449;56;1135141;-74
2023/04/27 08:25:15;;;;;;;4.33;1.40;;;;;;;8.88;62.54;100969.45;5090636;56;1135088;-76
2023/04/27 08:30:21;;;;;;;5.92;1.65;;;;;;;8.95;58.31;100978.22;5123717;56;1134562;-75
2023/04/27 08:35:26;;;;;;;8.20;2.12;;;;;;;9.11;57.71;100964.89;5101308;56;1134837;-74
2023/04/27 08:40:32;;;;;;;3.62;1.80;;;;;;;9.24;59.55;100963.16;5104638;55;1134584;-77
2023/04/27 08:45:37;;;;;;;7.67;1.50;;;;;;;9.40;59.23;100968.28;5143342;55;1134551;-74
2023/04/27 08:50:45;;;;;;;5.90;1.50;;;;;;;9.53;57.90;100966.05;5186887;55;1136708;-77
2023/04/27 08:55:51;;;;;;;6.17;2.20;;;;;;;9.35;58.23;100968.57;5187929;55;1136723;-76
2023/04/27 09:00:57;;;;;;;10.90;3.17;;;;;;;9.26;61.03;100980.21;5108567;55;1134619;-76
2023/04/27 09:06:04;;;;;;;12.27;4.50;;;;;;;9.08;61.14;100977.81;5049284;56;1137145;-73
2023/04/27 09:11:09;;;;;;;9.80;2.90;;;;;;;8.86;61.03;100983.24;5011906;56;1136805;-73
2023/04/27 09:16:15;;;;;;;7.93;1.83;;;;;;;8.65;61.10;100991.54;5188254;55;1134550;-75
2023/04/27 09:21:30;;;;;;;5.27;2.90;;;;;;;8.59;62.07;100981.83;5183420;55;1135110;-76
2023/04/27 09:26:35;;;;;;;5.43;2.20;;;;;;;8.51;62.01;100988.06;5113239;55;1135052;-75
2023/04/27 09:31:43;;;;;;;2.33;1.50;;;;;;;8.53;60.43;100988.82;5076968;56;1134537;-77
2023/04/27 09:36:48;;;;;;;3.70;1.20;;;;;;;8.61;60.55;100982.59;5113738;55;1134549;-76
2023/04/27 09:41:55;;;;;;;1.70;1.20;;;;;;;8.72;60.35;100979.66;5213431;55;1134610;-75
2023/04/27 09:47:02;;;;;;;3.15;1.60;;;;;;;8.82;57.83;100985.22;5165590;55;1134852;-76
2023/04/27 09:52:07;;;;;;;7.33;1.90;;;;;;;8.76;58.42;100985.59;5098428;56;1134683;-75
2023/04/27 09:57:26;;;;;;;10.78;1.72;;;;;;;8.70;59.72;100990.80;5183873;55;1134548;-73
2023/04/27 10:02:37;;;;;;;2.90;1.47;;;;;;;8.79;60.39;100982.77;5131333;55;1136620;-76
2023/04/27 10:07:43;;;;;;;3.27;1.87;;;;;;;8.86;58.95;100985.87;5176626;55;1134518;-73
2023/04/27 10:13:01;;;;;;;9.40;2.20;;;;;;;8.89;59.22;100983.02;5134015;55;1134625;-75
2023/04/27 10:18:07;;;;;;;5.27;1.93;;;;;;;8.94;59.48;100987.55;5101267;56;1134557;-77
2023/04/27 10:23:20;;;;;;;10.18;2.62;;;;;;;8.89;58.83;100986.98;5021118;56;1134597;-77
2023/04/27 10:28:26;;;;;;;6.83;2.30;;;;;;;8.84;59.14;100989.92;5122318;55;1136751;-73
2023/04/27 10:33:36;;;;;;;7.23;2.40;;;;;;;8.82;59.49;100993.13;5108988;55;1134782;-78
2023/04/27 10:38:42;;;;;;;10.82;2.12;;;;;;;8.79;58.26;100992.84;5104535;55;1134694;-74
2023/04/27 10:43:48;;;;;;;8.98;1.90;;;;;;;8.76;58.53;100994.34;5104225;56;1136924;-77
2023/04/27 10:48:54;;;;;;;2.93;1.03;;;;;;;8.79;59.80;100998.59;5184509;55;1134566;-75
2023/04/27 10:54:01;;;;;;;2.37;1.10;;;;;;;8.82;56.02;100995.77;5175107;55;1134765;-75
2023/04/27 10:59:07;;;;;;;4.43;1.30;;;;;;;8.91;54.79;101002.24;5138276;55;1134527;-79
2023/04/27 11:04:12;;;;;;;5.03;1.97;;;;;;;9.19;55.46;100995.58;5102583;56;1134611;-77
2023/04/27 11:09:27;;;;;;;5.47;1.57;;;;;;;9.67;56.58;100989.37;5055236;57;1136612;-76
2023/04/27 11:14:35;;;;;;;2.87;1.63;;;;;;;9.71;53.82;100988.23;5166474;55;1136643;-73
2023/04/27 11:19:47;;;;;;;4.80;1.17;;;;;;;9.60;50.86;100987.62;5010764;57;1136588;-75
2023/04/27 11:24:54;;;;;;;3.65;0.90;;;;;;;9.49;53.33;100998.03;5193498;55;1136744;-77
2023/04/27 11:29:59;;;;;;;7.13;2.13;;;;;;;9.46;53.60;101002.21;5211747;55;1136731;-78
2023/04/27 11:35:06;;;;;;;2.30;1.63;;;;;;;9.58;54.29;100999.23;5132724;55;1174344;-78
2023/04/27 11:40:16;;;;;;;1.53;0.87;;;;;;;10.01;52.63;100989.28;5125499;56;1136725;-77
2023/04/27 11:45:26;;;;;;;3.20;1.33;;;;;;;9.93;48.85;100988.97;4991443;57;1138879;-74
2023/04/27 11:50:31;;;;;;;6.62;1.50;;;;;;;9.75;49.67;100995.86;5021538;56;1136634;-74
2023/04/27 11:55:40;;;;;;;3.03;1.20;;;;;;;9.70;51.58;100990.02;5117025;55;1136690;-74
2023/04/27 12:00:46;;;;;;;4.77;1.20;;;;;;;9.67;52.19;100994.66;5122094;55;1136697;-77
2023/04/27 12:05:53;;;;;;;2.50;1.10;;;;;;;9.61;51.58;100998.56;5017594;56;1136740;-78
2023/04/27 12:10:58;;;;;;;5.60;1.10;;;;;;;9.64;50.34;101008.91;5017631;56;1136816;-74
2023/04/27 12:16:04;;;;;;;5.37;1.20;;;;;;;9.74;50.75;100997.28;5040845;56;1136920;-76
2023/04/27 12:21:09;;;;;;;2.30;0.80;;;;;;;9.80;52.89;100999.48;5023973;57;1136641;-75
2023/04/27 12:26:15;;;;;;;1.20;1.10;;;;;;;9.74;48.75;101002.09;5029858;57;1136720;-75
2023/04/27 12:31:23;;;;;;;4.73;1.30;;;;;;;9.66;49.06;101014.09;5052588;56;1136892;-75
2023/04/27 12:36:28;;;;;;;1.40;1.30;;;;;;;9.62;50.83;101017.43;4998671;56;1136640;-75
2023/04/27 12:41:34;;;;;;;3.98;2.12;;;;;;;9.63;51.06;101011.17;4969047;56;1250781;-76
2023/04/27 12:46:42;;;;;;;4.03;1.90;;;;;;;9.73;51.71;101013.59;4983655;57;1136697;-74
2023/04/27 12:51:50;;;;;;;2.13;1.30;;;;;;;9.80;52.33;101014.87;5108614;56;1136789;-78
2023/04/27 12:56:54;;;;;;;4.50;1.10;;;;;;;9.77;49.61;101017.73;4934132;56;1136746;-77
2023/04/27 13:02:02;;;;;;;7.10;3.00;;;;;;;9.60;49.80;101027.24;5032153;57;1136783;-74
2023/04/27 13:07:08;;;;;;;6.47;2.30;;;;;;;9.54;51.29;101032.91;5016037;57;1136834;-78
2023/04/27 13:12:13;;;;;;;3.40;1.80;;;;;;;9.58;51.62;101029.13;5119732;55;1136783;-78
2023/04/27 13:17:19;;;;;;;6.67;2.00;;;;;;;9.64;52.67;101027.39;5160940;55;1136663;-76
2023/04/27 13:22:24;;;;;;;5.37;2.12;;;;;;;9.82;53.48;101037.22;5196494;55;1136674;-77
2023/04/27 13:27:30;;;;;;;3.30;1.27;;;;;;;9.87;51.38;101027.20;5183297;55;1136746;-76
2023/04/27 13:32:36;;;;;;;2.80;1.40;;;;;;;9.93;50.57;101028.10;5141773;55;1136641;-75
2023/04/27 13:37:41;;;;;;;4.30;2.13;;;;;;;9.97;52.13;101024.31;5200820;55;1136596;-74
2023/04/27 14:09:00;;;;;;;3.97;1.17;;;;;;;11.02;47.21;101036.02;5149786;55;1138803;-74
2023/04/27 14:14:06;;;;;;;5.70;0.60;;;;;;;10.93;46.18;101041.51;5119326;55;1138791;-78
2023/04/27 14:19:14;;;;;;;7.83;1.23;;;;;;;10.71;44.93;101043.48;5076655;56;1138739;-75
2023/04/27 14:24:19;;;;;;;1.03;0.90;;;;;;;10.50;47.38;101039.22;5031520;56;1138820;-77
2023/04/27 14:29:25;;;;;;;3.37;0.90;;;;;;;10.61;48.53;101037.14;5001684;56;1138804;-75
2023/04/27 14:34:31;;;;;;;6.92;2.35;;;;;;;10.59;48.28;101043.02;4977261;57;1138672;-77
2023/04/27 14:39:36;;;;;;;8.63;1.10;;;;;;;10.51;49.41;101048.00;4981744;57;1138847;-75
2023/04/27 14:44:42;;;;;;;2.10;0.90;;;;;;;10.51;46.82;101051.97;5046090;57;1138658;-78
2023/04/27 14:49:47;;;;;;;5.33;1.40;;;;;;;10.38;47.90;101055.93;5034329;55;1138680;-79
2023/04/27 14:54:53;;;;;;;1.67;0.70;;;;;;;10.33;49.22;101055.86;5045651;57;1138727;-77
2023/04/27 14:59:59;;;;;;;1.20;1.10;;;;;;;10.28;48.64;101054.84;4995012;56;1138993;-76
2023/04/27 15:05:05;;;;;;;5.13;1.23;;;;;;;10.37;49.57;101056.03;5032650;56;1138655;-77
2023/04/27 15:10:11;;;;;;;9.40;2.57;;;;;;;10.34;47.69;101047.83;5006637;56;1138757;-76
2023/04/27 15:15:17;;;;;;;8.30;1.53;;;;;;;10.26;48.40;101053.25;4980535;57;1138592;-76
2023/04/27 15:20:23;;;;;;;8.33;2.77;;;;;;;10.26;47.86;101047.96;4999778;57;1138691;-74
2023/04/27 15:25:28;;;;;;;14.07;3.83;;;;;;;10.23;46.61;101053.01;4979964;57;1138879;-74
2023/04/27 15:30:35;;;;;;;5.80;1.27;;;;;;;10.52;49.47;101049.70;5008466;56;1141005;-78
2023/04/27 15:35:41;;;;;;;3.20;1.23;;;;;;;10.81;47.16;101046.34;5027174;57;1138864;-76
2023/04/27 15:40:47;;;;;;;1.60;0.78;;;;;;;10.91;44.25;101048.23;5013475;57;1138843;-76
2023/04/27 15:45:53;;;;;;;3.47;0.90;;;;;;;10.76;43.62;101044.48;4995424;55;1139133;-75
2023/04/27 15:50:58;;;;;;;1.87;0.80;;;;;;;10.58;43.29;101048.78;4960599;57;1138834;-77
2023/04/27 15:56:04;;;;;;;7.90;1.10;;;;;;;10.51;44.58;101053.29;4980705;57;1138786;-76
2023/04/27 16:01:10;;;;;;;3.90;1.77;;;;;;;10.55;45.79;101050.78;4969713;57;1138831;-76
2023/04/27 16:06:15;;;;;;;8.03;1.10;;;;;;;10.49;45.64;101045.94;4969533;57;1138721;-77
2023/04/27 16:11:21;;;;;;;12.10;2.73;;;;;;;10.53;45.50;101046.95;5144625;55;1138880;-76
2023/04/27 16:16:26;;;;;;;4.97;1.70;;;;;;;10.51;47.81;101040.91;5101924;55;1141046;-77
2023/04/27 16:21:33;;;;;;;4.57;1.50;;;;;;;10.55;47.13;101049.45;5108224;55;1138643;-77
2023/04/27 16:26:38;;;;;;;1.50;1.10;;;;;;;10.47;46.08;101042.55;5133856;55;1138719;-79
2023/04/27 16:31:45;;;;;;;2.77;1.55;;;;;;;10.41;45.70;101039.83;5124809;55;1138716;-75
2023/04/27 16:36:51;;;;;;;2.30;1.10;;;;;;;10.19;45.81;101042.27;5123225;55;1139105;-79
2023/04/27 16:41:56;;;;;;;5.03;1.82;;;;;;;10.07;46.69;101047.88;5116104;54;1138770;-77
2023/04/27 16:47:02;;;;;;;6.80;1.93;;;;;;;10.04;47.57;101045.43;5122483;55;1138817;-77
2023/04/27 16:52:08;;;;;;;6.63;1.93;;;;;;;10.11;47.80;101047.17;5120197;55;1138809;-77
2023/04/27 16:57:14;;;;;;;3.83;1.80;;;;;;;10.15;48.46;101043.37;5130953;55;1138696;-77
2023/04/27 17:02:19;;;;;;;4.30;1.30;;;;;;;10.16;48.74;101043.75;5132355;55;1138807;-75
2023/04/27 17:07:27;;;;;;;7.73;1.70;;;;;;;10.07;48.49;101051.84;5097143;56;1139016;-70
2023/04/27 17:12:32;;;;;;;1.40;1.00;;;;;;;9.94;49.19;101065.47;5097709;55;1138925;-76
2023/04/27 17:17:38;;;;;;;5.20;1.33;;;;;;;9.85;50.09;101056.84;5123562;55;1136622;-76
2023/04/27 17:22:45;;;;;;;8.03;1.90;;;;;;;9.83;50.68;101062.22;5097048;55;1136793;-77
2023/04/27 17:27:50;;;;;;;5.20;2.47;;;;;;;9.83;50.65;101063.55;5111166;55;1136669;-75
2023/04/27 17:32:56;;;;;;;6.37;1.87;;;;;;;9.78;50.75;101061.66;5150577;55;1136683;-75
2023/04/27 17:38:03;;;;;;;9.17;4.20;;;;;;;9.74;50.93;101061.99;5160570;55;1136752;-78
2023/04/27 17:43:10;;;;;;;30.40;11.20;;;;;;;9.71;51.75;101068.79;5008221;55;1136777;-75
2023/04/27 17:48:15;;;;;;;36.47;10.73;;;;;;;9.69;52.28;101066.72;5128947;55;1140872;-79
2023/04/27 17:53:21;;;;;;;195.43;67.50;;;;;;;9.63;52.32;101071.91;5172008;55;1140778;-77
2023/04/27 17:58:27;;;;;;;174.83;70.70;;;;;;;9.60;52.75;101072.61;5126129;55;1142810;-78
2023/04/27 18:03:32;;;;;;;110.03;44.50;;;;;;;9.53;53.04;101070.34;5152106;55;1140802;-75
2023/04/27 18:08:38;;;;;;;112.37;49.50;;;;;;;9.46;53.18;101079.62;5114637;56;1140780;-74
2023/04/27 18:13:44;;;;;;;210.50;100.50;;;;;;;9.40;53.73;101080.01;5011695;56;1143691;-74
2023/04/27 18:18:49;;;;;;;102.97;47.33;;;;;;;9.30;54.30;101084.19;5020576;56;1142884;-74
2023/04/27 18:23:56;;;;;;;38.77;10.77;;;;;;;9.16;54.84;101094.30;5091958;56;1141113;-77
2023/04/27 18:29:01;;;;;;;47.13;17.33;;;;;;;9.00;55.55;101094.87;5105725;56;1138899;-74
2023/04/27 18:34:07;;;;;;;25.23;8.57;;;;;;;8.88;56.33;101088.16;5086541;56;1138889;-76
2023/04/27 18:39:12;;;;;;;20.17;6.93;;;;;;;8.81;56.16;101099.10;5134226;55;1136585;-79
2023/04/27 18:44:18;;;;;;;13.70;5.00;;;;;;;8.69;56.86;101107.77;5054730;56;1136693;-76
2023/04/27 18:49:23;;;;;;;15.97;6.03;;;;;;;8.68;57.67;101107.38;5144847;55;1136762;-77
2023/04/27 18:54:29;;;;;;;32.83;9.80;;;;;;;8.69;58.15;101112.19;5134384;55;1136805;-77
2023/04/27 18:59:37;;;;;;;47.33;12.70;;;;;;;8.66;58.72;101120.27;5116288;56;1136748;-74
2023/04/27 19:04:43;;;;;;;108.10;45.03;;;;;;;8.61;59.62;101126.28;5097353;56;1138958;-79
2023/04/27 19:09:48;;;;;;;82.60;29.98;;;;;;;8.51;59.96;101132.59;5139037;55;1140927;-78
2023/04/27 19:14:54;;;;;;;101.47;42.37;;;;;;;8.42;60.34;101134.42;5100742;56;1138817;-76
2023/04/27 19:20:00;;;;;;;93.43;40.80;;;;;;;8.27;60.99;101169.08;5104346;55;1141079;-76
2023/04/27 19:25:06;;;;;;;97.13;42.20;;;;;;;8.10;61.62;101140.22;5076092;56;1138678;-75
2023/04/27 19:30:12;;;;;;;120.27;50.10;;;;;;;8.04;62.06;101144.06;5013288;57;1138771;-77
2023/04/27 19:35:19;;;;;;;151.20;59.20;;;;;;;7.98;62.64;101151.45;5099361;56;1140903;-78
2023/04/27 19:40:24;;;;;;;150.47;57.57;;;;;;;7.92;63.10;101151.36;5095091;56;1140956;-78
2023/04/27 19:45:30;;;;;;;170.60;67.57;;;;;;;7.81;63.35;101156.82;5034157;56;1140748;-76
2023/04/27 19:50:37;;;;;;;137.90;59.90;;;;;;;7.68;63.70;101164.09;5052592;54;1141254;-77
2023/04/27 19:55:44;;;;;;;130.65;53.58;;;;;;;7.60;64.34;101165.46;5049012;56;1141052;-77
2023/04/27 20:00:49;;;;;;;136.97;55.00;;;;;;;7.53;64.82;101165.40;5043588;56;1141052;-77
2023/04/27 20:05:55;;;;;;;128.95;50.48;;;;;;;7.43;65.09;101167.69;5040657;56;1150857;-76
2023/04/27 20:11:00;;;;;;;112.17;53.33;;;;;;;7.34;65.45;101169.48;5051721;56;1140869;-77
2023/04/27 20:16:07;;;;;;;105.10;49.53;;;;;;;7.25;65.81;101164.27;4951141;57;1140767;-77
2023/04/27 20:21:13;;;;;;;99.83;42.77;;;;;;;7.09;66.08;101169.10;5032952;56;1140903;-76
2023/04/27 20:26:18;;;;;;;128.47;50.13;;;;;;;6.99;66.72;101172.23;4971343;57;1138969;-76
2023/04/27 20:31:24;;;;;;;118.90;49.10;;;;;;;6.96;67.08;101176.79;5079966;56;1140932;-78
2023/04/27 20:36:30;;;;;;;116.43;44.70;;;;;;;6.92;67.24;101174.78;5151878;55;1140893;-78
2023/04/27 20:41:40;;;;;;;126.93;50.60;;;;;;;6.86;67.76;101176.43;5116153;56;1140868;-78
2023/04/27 20:46:45;;;;;;;109.15;45.17;;;;;;;6.77;67.90;101174.25;5080855;57;1140923;-78
2023/04/27 20:51:51;;;;;;;103.30;45.48;;;;;;;6.61;67.91;101183.38;4974891;57;1140793;-75
2023/04/27 20:56:56;;;;;;;118.10;49.73;;;;;;;6.44;68.29;101183.84;4979604;56;1140888;-77
2023/04/27 21:02:02;;;;;;;97.03;43.57;;;;;;;6.29;69.18;101177.11;4930934;58;1140998;-76
2023/04/27 21:07:08;;;;;;;106.13;44.17;;;;;;;6.21;69.37;101183.22;4979282;57;1139109;-76
2023/04/27 21:12:16;;;;;;;98.43;40.60;;;;;;;6.13;69.60;101184.49;4895925;58;1141001;-77
2023/04/27 21:17:21;;;;;;;111.50;42.87;;;;;;;6.09;69.79;101184.28;4998192;56;1138774;-78
2023/04/27 21:22:26;;;;;;;108.43;45.90;;;;;;;6.05;70.04;101184.03;4978281;56;1140960;-77
2023/04/27 21:27:32;;;;;;;138.93;56.60;;;;;;;5.98;70.18;101180.38;4978789;56;1140796;-79
2023/04/27 21:32:38;;;;;;;165.87;63.30;;;;;;;5.95;70.27;101179.23;4998891;56;1140833;-80
2023/04/27 21:37:43;;;;;;;193.00;75.80;;;;;;;5.86;70.31;101180.08;4978843;56;1140897;-79
2023/04/27 21:42:53;;;;;;;192.77;73.73;;;;;;;5.70;70.52;101183.89;4979437;56;1140829;-79
2023/04/27 21:47:59;;;;;;;158.35;58.33;;;;;;;5.65;71.28;101185.89;5026298;57;1140925;-76
2023/04/27 21:53:04;;;;;;;140.93;55.17;;;;;;;5.56;71.39;101183.22;5052347;56;1140759;-78
2023/04/27 21:58:10;;;;;;;136.47;49.13;;;;;;;5.47;71.60;101186.28;4991061;57;1140863;-78
2023/04/27 22:03:16;;;;;;;175.07;57.40;;;;;;;5.40;72.00;101183.98;5032286;57;1140854;-77
2023/04/27 22:08:22;;;;;;;227.70;79.07;;;;;;;5.33;72.42;101178.19;5136864;56;1140815;-78
2023/04/27 22:13:27;;;;;;;313.57;115.97;;;;;;;5.23;72.72;101186.06;5017211;57;1141238;-75
2023/04/27 22:18:33;;;;;;;213.87;72.57;;;;;;;5.16;72.82;101192.05;5151826;55;1142982;-77
2023/04/27 22:23:39;;;;;;;176.17;61.87;;;;;;;5.08;72.74;101182.81;5116852;56;1140925;-78
2023/04/27 22:28:44;;;;;;;176.93;65.90;;;;;;;5.08;72.89;101185.43;5152622;55;1140856;-78
2023/04/27 22:33:50;;;;;;;146.47;53.40;;;;;;;5.12;73.05;101185.70;5096989;56;1142983;-78
2023/04/27 22:38:56;;;;;;;110.64;38.78;;;;;;;5.14;73.35;101196.52;5167012;55;1140793;-76
2023/04/27 22:44:02;;;;;;;92.57;30.37;;;;;;;5.08;73.30;101194.15;5139064;55;1140849;-78
2023/04/27 22:49:07;;;;;;;110.03;37.07;;;;;;;4.97;72.85;101193.78;5013481;57;1138794;-75
2023/04/27 22:54:13;;;;;;;109.80;35.23;;;;;;;4.74;73.50;101196.06;5013350;57;1140877;-76
2023/04/27 22:59:21;;;;;;;126.97;37.40;;;;;;;4.53;74.03;101194.37;5049187;56;1140750;-77
2023/04/27 23:04:26;;;;;;;148.87;42.10;;;;;;;4.46;74.35;101191.14;4977350;57;1140787;-77
2023/04/27 23:09:33;;;;;;;142.60;37.38;;;;;;;4.36;74.68;101185.90;5117114;56;1140937;-78
2023/04/27 23:14:40;;;;;;;114.10;31.10;;;;;;;4.33;75.23;101186.47;5052735;57;1141051;-76
2023/04/27 23:19:46;;;;;;;118.20;32.97;;;;;;;4.27;75.37;101189.36;5052455;57;1140956;-78
2023/04/27 23:24:52;;;;;;;111.25;36.55;;;;;;;4.25;75.73;101185.50;5033006;57;1141078;-77
2023/04/27 23:29:58;;;;;;;94.63;25.73;;;;;;;4.31;76.21;101185.23;5033439;57;1140823;-76
2023/04/27 23:35:03;;;;;;;95.70;25.57;;;;;;;4.29;75.92;101183.13;5052579;56;1138834;-78